createdAt,value
2023-02-25T00:01:39.138Z,0.65
2023-02-25T00:04:05.892Z,0.70
2023-02-25T00:06:33.131Z,0.50
2023-02-25T00:09:03.511Z,0.90
2023-02-25T00:11:30.315Z,0.60
2023-02-25T00:14:03.066Z,0.70
2023-02-25T00:16:30.090Z,0.75
2023-02-25T00:18:57.804Z,0.57
2023-02-25T00:21:25.985Z,0.90
2023-02-25T00:23:53.788Z,0.55
2023-02-25T00:26:21.986Z,0.68
2023-02-25T00:28:50.890Z,0.93
2023-02-25T00:31:23.907Z,0.63
2023-02-25T00:33:53.051Z,0.75
2023-02-25T00:36:23.218Z,0.80
2023-02-25T00:38:52.289Z,0.90
2023-02-25T00:41:22.228Z,1.05
2023-02-25T00:43:52.699Z,0.90
2023-02-25T00:46:21.283Z,0.90
2023-02-25T00:48:48.448Z,0.60
2023-02-25T00:51:21.323Z,0.40
2023-02-25T00:53:49.790Z,1.00
2023-02-25T00:56:18.120Z,1.10
2023-02-25T00:58:46.521Z,0.70
2023-02-25T01:01:21.345Z,1.00
2023-02-25T01:03:50.028Z,1.00
2023-02-25T01:06:17.295Z,0.95
2023-02-25T01:08:44.251Z,0.88
2023-02-25T01:13:40.230Z,0.75
2023-02-25T01:16:15.488Z,0.60
2023-02-25T01:18:44.577Z,1.02
2023-02-25T01:21:35.100Z,1.00
2023-02-25T01:24:05.217Z,0.80
2023-02-25T01:26:35.444Z,1.25
2023-02-25T01:29:02.320Z,0.73
2023-02-25T01:34:00.179Z,1.02
2023-02-25T01:36:28.873Z,0.70
2023-02-25T01:38:57.813Z,1.13
2023-02-25T01:41:26.654Z,0.75
2023-02-25T01:44:30.514Z,0.93
2023-02-25T01:46:57.508Z,0.90
2023-02-25T01:49:38.152Z,0.90
2023-02-25T01:52:12.334Z,0.90
2023-02-25T01:54:40.172Z,1.00
2023-02-25T01:57:09.910Z,1.02
2023-02-25T01:59:38.983Z,0.80
2023-02-25T02:02:19.274Z,1.27
2023-02-25T02:04:50.352Z,2.15
2023-02-25T02:07:20.785Z,1.00
2023-02-25T02:09:57.132Z,1.67
2023-02-25T02:12:37.383Z,1.30
2023-02-25T02:15:08.329Z,1.10
2023-02-25T02:17:46.715Z,0.70
2023-02-25T02:20:23.176Z,0.95
2023-02-25T02:23:40.820Z,1.00
2023-02-25T02:26:26.183Z,1.00
2023-02-25T02:29:09.693Z,1.15
2023-02-25T02:31:48.340Z,1.25
2023-02-25T02:34:21.352Z,1.40
2023-02-25T02:39:34.127Z,0.88
2023-02-25T02:42:06.140Z,0.93
2023-02-25T02:45:11.786Z,1.00
2023-02-25T02:47:43.667Z,1.35
2023-02-25T02:50:17.751Z,1.40
2023-02-25T02:52:52.116Z,1.40
2023-02-25T02:55:27.656Z,1.13
2023-02-25T02:58:01.831Z,1.42
2023-02-25T03:00:36.631Z,1.15
2023-02-25T03:03:36.388Z,0.63
2023-02-25T03:06:10.519Z,1.48
2023-02-25T03:08:50.104Z,0.82
2023-02-25T03:11:17.708Z,1.33
2023-02-25T03:13:45.596Z,0.88
2023-02-25T03:16:24.108Z,1.02
2023-02-25T03:19:16.168Z,1.00
2023-02-25T03:21:47.638Z,1.05
2023-02-25T03:24:22.443Z,1.38
2023-02-25T03:26:53.465Z,1.48
2023-02-25T03:29:28.645Z,1.02
2023-02-25T03:32:02.744Z,1.20
2023-02-25T03:34:44.599Z,1.38
2023-02-25T03:37:18.891Z,1.50
2023-02-25T03:39:52.054Z,0.80
2023-02-25T03:42:25.475Z,0.73
2023-02-25T03:44:57.080Z,1.00
2023-02-25T03:47:25.587Z,1.17
2023-02-25T03:50:08.752Z,0.65
2023-02-25T03:52:36.692Z,1.40
2023-02-25T03:55:12.203Z,0.63
2023-02-25T03:57:43.853Z,1.02
2023-02-25T04:00:19.150Z,1.42
2023-02-25T04:02:47.660Z,1.23
2023-02-25T04:05:16.562Z,0.93
2023-02-25T04:07:43.693Z,1.48
2023-02-25T04:10:14.184Z,0.88
2023-02-25T04:12:40.874Z,1.05
2023-02-25T04:15:08.910Z,0.80
2023-02-25T04:17:37.198Z,0.93
2023-02-25T04:20:05.424Z,1.42
2023-02-25T04:22:34.378Z,0.70
2023-02-25T04:25:01.578Z,1.10
2023-02-25T04:29:55.084Z,0.70
2023-02-25T04:34:48.909Z,0.57
2023-02-25T04:37:15.833Z,0.90
2023-02-25T04:42:09.588Z,0.50
2023-02-25T04:47:03.281Z,0.90
2023-02-25T04:49:30.350Z,0.90
2023-02-25T04:51:57.400Z,0.80
2023-02-25T04:56:50.743Z,0.85
2023-02-25T04:59:17.486Z,0.80
2023-02-25T05:04:12.223Z,0.60
2023-02-25T05:06:39.573Z,0.80
2023-02-25T05:09:06.965Z,0.60
2023-02-25T05:11:34.427Z,0.65
2023-02-25T05:16:28.430Z,0.63
2023-02-25T05:18:58.440Z,0.47
2023-02-25T05:21:26.944Z,1.23
2023-02-25T05:23:54.385Z,0.98
2023-02-25T05:26:27.120Z,0.65
2023-02-25T05:31:25.106Z,0.40
2023-02-25T05:33:52.851Z,0.80
2023-02-25T05:36:27.386Z,0.47
2023-02-25T05:39:02.914Z,0.55
2023-02-25T05:41:30.868Z,0.60
2023-02-25T05:43:58.376Z,0.50
2023-02-25T05:46:27.102Z,0.38
2023-02-25T05:48:57.273Z,0.57
2023-02-25T05:51:24.043Z,0.68
2023-02-25T05:56:30.180Z,0.70
2023-02-25T05:58:58.993Z,0.52
2023-02-25T06:01:29.662Z,0.90
2023-02-25T06:03:58.674Z,0.80
2023-02-25T06:06:30.339Z,0.70
2023-02-25T06:08:57.480Z,0.73
2023-02-25T06:11:27.449Z,0.50
2023-02-25T06:13:55.487Z,0.88
2023-02-25T06:16:26.510Z,0.45
2023-02-25T06:18:58.104Z,0.52
2023-02-25T06:21:25.228Z,0.80
2023-02-25T06:23:52.957Z,0.75
2023-02-25T06:26:20.121Z,0.88
2023-02-25T06:28:47.671Z,0.60
2023-02-25T06:31:16.540Z,0.98
2023-02-25T06:33:43.773Z,0.82
2023-02-25T06:36:14.008Z,1.20
2023-02-25T06:38:43.432Z,0.77
2023-02-25T06:41:19.419Z,0.70
2023-02-25T06:43:52.833Z,0.60
2023-02-25T06:46:25.184Z,0.88
2023-02-25T06:48:53.399Z,0.75
2023-02-25T06:51:20.723Z,1.00
2023-02-25T06:53:48.678Z,0.63
2023-02-25T06:56:19.066Z,0.93
2023-02-25T06:58:46.125Z,1.05
2023-02-25T07:01:16.252Z,0.90
2023-02-25T07:03:46.674Z,0.77
2023-02-25T07:06:16.748Z,0.85
2023-02-25T07:08:44.036Z,1.63
2023-02-25T07:11:19.804Z,1.02
2023-02-25T07:13:48.011Z,0.55
2023-02-25T07:16:15.663Z,1.20
2023-02-25T07:18:42.868Z,1.08
2023-02-25T07:21:12.569Z,1.02
2023-02-25T07:23:40.777Z,0.70
2023-02-25T07:26:09.890Z,0.90
2023-02-25T07:28:37.389Z,0.82
2023-02-25T07:31:10.477Z,0.70
2023-02-25T07:33:42.343Z,0.73
2023-02-25T07:36:17.620Z,0.85
2023-02-25T07:38:45.396Z,0.55
2023-02-25T07:41:14.561Z,0.90
2023-02-25T07:43:42.302Z,1.08
2023-02-25T07:46:20.721Z,1.00
2023-02-25T07:48:50.059Z,1.00
2023-02-25T07:51:22.344Z,0.65
2023-02-25T07:53:51.951Z,0.95
2023-02-25T07:56:24.224Z,0.75
2023-02-25T07:58:51.397Z,1.10
2023-02-25T08:01:20.291Z,1.00
2023-02-25T08:03:50.196Z,0.90
2023-02-25T08:06:17.773Z,0.93
2023-02-25T08:08:47.879Z,1.23
2023-02-25T08:11:15.895Z,1.02
2023-02-25T08:13:45.419Z,0.88
2023-02-25T08:16:15.903Z,0.63
2023-02-25T08:18:43.841Z,0.60
2023-02-25T08:21:12.840Z,1.30
2023-02-25T08:23:46.768Z,1.08
2023-02-25T08:26:19.704Z,1.02
2023-02-25T08:28:47.511Z,1.10
2023-02-25T08:31:15.697Z,0.73
2023-02-25T08:33:45.548Z,1.05
2023-02-25T08:36:16.366Z,0.70
2023-02-25T08:38:43.791Z,1.00
2023-02-25T08:41:11.513Z,0.80
2023-02-25T08:43:39.717Z,0.90
2023-02-25T08:46:06.913Z,0.80
2023-02-25T08:48:34.691Z,0.65
2023-02-25T08:51:08.598Z,0.80
2023-02-25T08:53:38.845Z,0.47
2023-02-25T08:56:11.696Z,0.80
2023-02-25T08:58:39.770Z,0.60
2023-02-25T09:01:13.932Z,0.47
2023-02-25T09:03:51.305Z,0.50
2023-02-25T09:06:26.564Z,0.55
2023-02-25T09:08:58.070Z,0.50
2023-02-25T09:11:29.947Z,0.80
2023-02-25T09:13:56.883Z,0.60
2023-02-25T09:16:23.568Z,0.80
2023-02-25T09:18:51.671Z,0.63
2023-02-25T09:21:21.455Z,1.20
2023-02-25T09:23:52.252Z,0.80
2023-02-25T09:26:22.029Z,0.90
2023-02-25T09:28:49.487Z,0.70
2023-02-25T09:31:17.137Z,0.98
2023-02-25T09:33:44.590Z,0.70
2023-02-25T09:36:20.753Z,0.60
2023-02-25T09:38:49.650Z,0.90
2023-02-25T09:41:32.389Z,0.85
2023-02-25T09:44:13.578Z,0.52
2023-02-25T09:46:49.422Z,0.63
2023-02-25T09:49:34.639Z,1.00
2023-02-25T09:52:32.776Z,1.08
2023-02-25T09:55:06.991Z,0.60
2023-02-25T09:57:42.236Z,0.75
2023-02-25T10:00:19.944Z,0.60
2023-02-25T10:02:50.461Z,0.88
2023-02-25T10:05:44.239Z,0.70
2023-02-25T10:08:30.282Z,0.98
2023-02-25T10:11:13.787Z,0.60
2023-02-25T10:14:00.487Z,0.60
2023-02-25T10:16:42.563Z,0.50
2023-02-25T10:19:31.395Z,0.52
2023-02-25T10:22:17.425Z,0.55
2023-02-25T10:25:08.919Z,0.60
2023-02-25T10:28:02.577Z,0.75
2023-02-25T10:31:00.301Z,0.68
2023-02-25T10:33:33.664Z,1.00
2023-02-25T10:36:10.500Z,0.70
2023-02-25T10:38:42.288Z,0.88
2023-02-25T10:41:09.159Z,0.88
2023-02-25T10:46:21.693Z,0.73
2023-02-25T10:48:56.794Z,1.00
2023-02-25T10:51:25.863Z,0.70
2023-02-25T10:53:52.814Z,0.70
2023-02-25T10:56:22.554Z,0.80
2023-02-25T10:59:05.603Z,0.50
2023-02-25T11:01:42.686Z,0.65
2023-02-25T11:04:17.954Z,0.85
2023-02-25T11:06:45.408Z,0.50
2023-02-25T11:09:21.702Z,0.65
2023-02-25T11:11:56.203Z,0.70
2023-02-25T11:14:29.464Z,0.73
2023-02-25T11:17:15.949Z,0.75
2023-02-25T11:20:21.013Z,0.60
2023-02-25T11:22:52.913Z,0.88
2023-02-25T11:25:32.493Z,0.70
2023-02-25T11:27:59.929Z,0.60
2023-02-25T11:30:35.543Z,1.05
2023-02-25T11:33:09.798Z,0.70
2023-02-25T11:35:40.501Z,0.63
2023-02-25T11:38:28.580Z,0.88
2023-02-25T11:40:55.969Z,0.50
2023-02-25T11:43:27.324Z,0.68
2023-02-25T11:46:02.104Z,1.02
2023-02-25T11:48:50.196Z,0.63
2023-02-25T11:51:47.380Z,1.00
2023-02-25T11:54:37.238Z,1.23
2023-02-25T11:57:13.577Z,1.40
2023-02-25T11:59:55.324Z,0.77
2023-02-25T12:02:53.602Z,1.33
2023-02-25T12:05:20.400Z,1.10
2023-02-25T12:08:22.537Z,1.83
2023-02-25T12:11:24.217Z,1.00
2023-02-25T12:13:57.286Z,1.63
2023-02-25T12:16:44.620Z,1.55
2023-02-25T12:19:14.437Z,1.05
2023-02-25T12:22:13.238Z,1.00
2023-02-25T12:25:12.370Z,0.90
2023-02-25T12:28:08.406Z,1.77
2023-02-25T12:30:54.791Z,1.10
2023-02-25T12:33:43.701Z,1.17
2023-02-25T12:36:19.703Z,0.82
2023-02-25T12:39:01.965Z,1.20
2023-02-25T12:41:48.347Z,1.23
2023-02-25T12:44:39.644Z,0.93
2023-02-25T12:47:15.795Z,0.80
2023-02-25T12:50:05.574Z,1.25
2023-02-25T12:52:54.704Z,2.83
2023-02-25T12:55:33.613Z,0.65
2023-02-25T12:58:16.623Z,1.10
2023-02-25T13:01:10.458Z,1.23
2023-02-25T13:04:31.540Z,0.90
2023-02-25T13:07:35.220Z,0.95
2023-02-25T13:10:23.343Z,1.00
2023-02-25T13:12:58.181Z,1.23
2023-02-25T13:16:07.389Z,0.98
2023-02-25T13:19:00.297Z,1.27
2023-02-25T13:21:52.251Z,0.73
2023-02-25T13:24:32.781Z,0.73
2023-02-25T13:27:15.345Z,1.30
2023-02-25T13:29:52.684Z,0.80
2023-02-25T13:32:41.997Z,0.80
2023-02-25T13:35:54.852Z,1.00
2023-02-25T13:38:53.143Z,0.90
2023-02-25T13:41:28.799Z,0.70
2023-02-25T13:44:20.519Z,0.93
2023-02-25T13:47:18.447Z,1.00
2023-02-25T13:50:12.981Z,0.88
2023-02-25T13:52:45.801Z,0.98
2023-02-25T13:58:32.366Z,0.88
2023-02-25T14:01:31.010Z,0.90
2023-02-25T14:04:21.481Z,0.80
2023-02-25T14:07:12.437Z,1.27
2023-02-25T14:10:01.053Z,0.98
2023-02-25T14:12:44.281Z,0.82
2023-02-25T14:15:36.359Z,1.23
2023-02-25T14:18:44.581Z,1.40
2023-02-25T14:21:43.733Z,0.98
2023-02-25T14:24:23.930Z,0.90
2023-02-25T14:27:15.689Z,0.98
2023-02-25T14:29:57.716Z,0.63
2023-02-25T14:32:24.535Z,1.60
2023-02-25T14:37:59.605Z,1.60
2023-02-25T14:40:39.938Z,2.25
2023-02-25T14:43:06.674Z,1.75
2023-02-25T14:45:54.047Z,1.00
2023-02-25T14:48:28.608Z,1.40
2023-02-25T14:51:35.070Z,1.08
2023-02-25T14:54:30.978Z,0.88
2023-02-25T14:57:22.554Z,1.40
2023-02-25T14:59:54.393Z,0.80
2023-02-25T15:02:38.869Z,1.45
2023-02-25T15:05:16.385Z,1.05
2023-02-25T15:08:11.292Z,1.33
2023-02-25T15:10:47.287Z,1.20
2023-02-25T15:13:29.510Z,0.70
2023-02-25T15:16:11.504Z,0.93
2023-02-25T15:18:41.193Z,1.05
2023-02-25T15:21:46.511Z,1.50
2023-02-25T15:24:41.929Z,0.80
2023-02-25T15:27:37.941Z,1.42
2023-02-25T15:30:07.625Z,1.60
2023-02-25T15:32:57.680Z,1.17
2023-02-25T15:35:53.812Z,0.77
2023-02-25T15:38:37.917Z,1.20
2023-02-25T15:41:27.466Z,1.30
2023-02-25T15:44:02.897Z,0.90
2023-02-25T15:46:35.567Z,1.40
2023-02-25T15:49:10.421Z,0.80
2023-02-25T15:51:51.548Z,1.00
2023-02-25T15:54:49.909Z,0.85
2023-02-25T15:57:19.772Z,1.00
2023-02-25T15:59:47.456Z,0.80
2023-02-25T16:02:26.495Z,0.80
2023-02-25T16:05:18.747Z,0.63
2023-02-25T16:07:50.448Z,0.80
2023-02-25T16:10:39.253Z,0.68
2023-02-25T16:13:17.020Z,1.40
2023-02-25T16:15:49.638Z,1.70
2023-02-25T16:18:42.768Z,2.10
2023-02-25T16:21:38.799Z,1.05
2023-02-25T16:24:13.202Z,2.33
2023-02-25T16:26:54.628Z,1.75
2023-02-25T16:29:40.840Z,1.73
2023-02-25T16:32:16.409Z,1.65
2023-02-25T16:35:25.898Z,0.60
2023-02-25T16:37:52.611Z,0.95
2023-02-25T16:40:28.028Z,0.82
2023-02-25T16:42:58.291Z,1.40
2023-02-25T16:45:41.506Z,1.10
2023-02-25T16:48:19.616Z,0.80
2023-02-25T16:50:48.038Z,1.00
2023-02-25T16:53:22.605Z,1.08
2023-02-25T16:55:51.095Z,0.98
2023-02-25T16:58:24.894Z,1.02
2023-02-25T17:01:04.048Z,1.00
2023-02-25T17:03:42.846Z,1.02
2023-02-25T17:06:18.906Z,0.90
2023-02-25T17:09:38.521Z,1.42
2023-02-25T17:12:29.886Z,1.20
2023-02-25T17:14:59.759Z,1.45
2023-02-25T17:17:33.240Z,1.75
2023-02-25T17:20:28.972Z,1.60
2023-02-25T17:22:58.654Z,1.58
2023-02-25T17:25:33.866Z,1.63
2023-02-25T17:28:01.408Z,1.67
2023-02-25T17:30:47.532Z,1.00
2023-02-25T17:33:28.197Z,1.40
2023-02-25T17:36:28.730Z,1.30
2023-02-25T17:39:02.948Z,1.20
2023-02-25T17:41:30.693Z,1.02
2023-02-25T17:43:57.637Z,1.40
2023-02-25T17:46:36.521Z,1.02
2023-02-25T17:49:30.003Z,1.80
2023-02-25T17:52:00.940Z,1.95
2023-02-25T17:54:30.652Z,1.88
2023-02-25T17:57:01.946Z,3.13
2023-02-25T17:59:39.622Z,1.60
2023-02-25T18:02:33.681Z,1.25
2023-02-25T18:05:12.462Z,1.27
2023-02-25T18:10:31.680Z,1.05
2023-02-25T18:13:01.665Z,1.27
2023-02-25T18:15:31.608Z,1.33
2023-02-25T18:18:01.831Z,0.60
2023-02-25T18:20:34.660Z,1.20
2023-02-25T18:23:24.517Z,2.10
2023-02-25T18:26:15.535Z,4.82
2023-02-25T18:31:12.557Z,0.88
2023-02-25T18:33:41.504Z,1.55
2023-02-25T18:36:09.516Z,3.70
2023-02-25T18:38:41.764Z,5.68
2023-02-25T18:41:08.628Z,2.72
2023-02-25T18:43:40.233Z,1.85
2023-02-25T18:46:09.590Z,3.05
2023-02-25T18:48:36.782Z,2.42
2023-02-25T18:51:06.033Z,1.50
2023-02-25T18:53:38.528Z,2.25
2023-02-25T18:58:32.641Z,1.77
2023-02-25T19:01:00.071Z,1.17
2023-02-25T19:03:39.050Z,1.50
2023-02-25T19:08:37.030Z,1.10
2023-02-25T19:11:05.785Z,1.13
2023-02-25T19:13:39.026Z,2.00
2023-02-25T19:18:32.910Z,1.23
2023-02-25T19:23:27.017Z,1.83
2023-02-25T19:25:58.752Z,1.70
2023-02-25T19:28:26.578Z,1.20
2023-02-25T19:30:53.708Z,1.40
2023-02-25T19:33:22.595Z,1.92
2023-02-25T19:35:49.512Z,2.00
2023-02-25T19:38:18.411Z,1.13
2023-02-25T19:40:47.079Z,1.35
2023-02-25T19:43:17.685Z,2.03
2023-02-25T19:45:44.588Z,1.42
2023-02-25T19:48:11.588Z,0.90
2023-02-25T19:50:43.131Z,1.52
2023-02-25T19:53:10.131Z,2.15
2023-02-25T19:58:05.479Z,1.75
2023-02-25T20:00:32.480Z,2.13
2023-02-25T20:02:59.375Z,2.30
2023-02-25T20:05:26.943Z,1.83
2023-02-25T20:07:57.005Z,1.55
2023-02-25T20:10:23.930Z,1.00
2023-02-25T20:12:50.956Z,1.10
2023-02-25T20:15:17.969Z,1.15
2023-02-25T20:20:14.284Z,1.42
2023-02-25T20:22:42.226Z,1.75
2023-02-25T20:25:11.606Z,1.15
2023-02-25T20:27:39.939Z,1.63
2023-02-25T20:30:08.760Z,1.27
2023-02-25T20:32:36.204Z,1.48
2023-02-25T20:35:03.519Z,1.33
2023-02-25T20:37:36.077Z,1.65
2023-02-25T20:40:09.849Z,1.27
2023-02-25T20:42:36.755Z,1.60
2023-02-25T20:45:04.646Z,1.52
2023-02-25T20:47:37.984Z,1.90
2023-02-25T20:50:18.225Z,1.95
2023-02-25T20:52:45.997Z,1.23
2023-02-25T20:55:12.933Z,1.67
2023-02-25T20:57:40.352Z,1.63
2023-02-25T21:00:15.076Z,1.55
2023-02-25T21:02:43.537Z,2.10
2023-02-25T21:05:10.554Z,2.10
2023-02-25T21:07:39.328Z,2.78
2023-02-25T21:10:06.682Z,2.58
2023-02-25T21:12:38.253Z,1.98
2023-02-25T21:15:05.372Z,2.17
2023-02-25T21:17:32.318Z,1.58
2023-02-25T21:22:26.208Z,1.77
2023-02-25T21:24:54.578Z,2.45
2023-02-25T21:27:23.926Z,2.17
2023-02-25T21:29:50.921Z,2.05
2023-02-25T21:34:45.415Z,2.35
2023-02-25T21:37:13.258Z,2.50
2023-02-25T21:39:41.523Z,2.58
2023-02-25T21:42:08.836Z,1.88
2023-02-25T21:44:37.477Z,2.88
2023-02-25T21:47:05.942Z,2.70
2023-02-25T21:49:34.865Z,2.10
2023-02-25T21:52:17.200Z,2.45
2023-02-25T21:54:52.986Z,2.40
2023-02-25T21:57:20.294Z,1.88
2023-02-25T21:59:48.067Z,2.20
2023-02-25T22:02:14.852Z,2.42
2023-02-25T22:07:09.699Z,2.30
2023-02-25T22:09:36.383Z,1.17
2023-02-25T22:12:03.266Z,2.10
2023-02-25T22:14:30.985Z,2.20
2023-02-25T22:16:57.845Z,2.15
2023-02-25T22:21:52.938Z,2.03
2023-02-25T22:24:19.726Z,2.45
2023-02-25T22:26:48.029Z,1.27
2023-02-25T22:29:14.869Z,2.05
2023-02-25T22:31:43.024Z,2.03
2023-02-25T22:34:13.763Z,2.67
2023-02-25T22:36:40.601Z,1.63
2023-02-25T22:39:09.310Z,1.65
2023-02-25T22:41:46.672Z,1.90
2023-02-25T22:44:13.569Z,1.95
2023-02-25T22:49:30.415Z,1.70
2023-02-25T22:52:08.229Z,1.67
2023-02-25T22:54:46.655Z,1.88
2023-02-25T22:57:13.836Z,1.95
2023-02-25T22:59:40.531Z,2.13
2023-02-25T23:02:13.550Z,2.25
2023-02-25T23:05:03.109Z,1.80
2023-02-25T23:08:23.954Z,1.60
2023-02-25T23:10:51.741Z,2.10
2023-02-25T23:13:18.782Z,2.03
2023-02-25T23:15:47.639Z,2.33
2023-02-25T23:18:36.405Z,2.13
2023-02-25T23:21:09.301Z,2.42
2023-02-25T23:23:38.834Z,2.20
2023-02-25T23:26:18.724Z,2.90
2023-02-25T23:31:32.345Z,3.10
2023-02-25T23:34:01.840Z,2.45
2023-02-25T23:36:28.671Z,3.20
2023-02-25T23:38:58.465Z,3.33
2023-02-25T23:41:26.031Z,2.70
2023-02-25T23:43:58.779Z,3.15
2023-02-25T23:46:27.591Z,4.93
2023-02-25T23:49:01.180Z,3.22
2023-02-25T23:51:30.022Z,3.20
2023-02-25T23:54:00.047Z,3.60
2023-02-25T23:56:33.358Z,3.85
2023-02-25T23:59:00.568Z,4.63
